Roans Prairie, Texas
Current Conditions -  °F | °C
As of 7:53 PM on Thursday 20 Nov 2014 (Local Time) from KUTS Reporting Station
Overcast Overcast  
Wind Chill: 63°   Ceiling: 10000
Heat Index: 63°   Visibility: 10mi
Dew Point: 53°   Wind: 7mph
Humidity: 70%   Direction: 160°SSE
Pressure: 30.09"   Gusts: NA
Location:  30.58°N, 95.94°W
Report Text: KUTS 210153Z AUTO 16006KT 10SM OVC100 17/12 A3009 RMK AO2 SLP187 T01720117
Loading
Personal Weather Stations






























Interactive Weather Map New forecast layout! Learn more

10-Day Weather Forecast

Advertisements
Track Severe Weather on mobile